sensor_id;sensor_type;location;lat;lon;timestamp;P1;P2;P0
43479;PMS5003;29067;35.492;-97.520;2024-02-23T00:01:13;24;23;
43479;PMS5003;29067;35.492;-97.520;2024-02-23T00:03:41;25;23;
43479;PMS5003;29067;35.492;-97.520;2024-02-23T00:06:09;21;21;
43479;PMS5003;29067;35.492;-97.520;2024-02-23T00:08:37;22;22;
43479;PMS5003;29067;35.492;-97.520;2024-02-23T00:11:05;21;20;
43479;PMS5003;29067;35.492;-97.520;2024-02-23T00:13:33;20;20;
43479;PMS5003;29067;35.492;-97.520;2024-02-23T00:16:02;23;21;
43479;PMS5003;29067;35.492;-97.520;2024-02-23T00:18:30;19;19;
43479;PMS5003;29067;35.492;-97.520;2024-02-23T00:20:57;17;16;
43479;PMS5003;29067;35.492;-97.520;2024-02-23T00:23:25;23;20;
43479;PMS5003;29067;35.492;-97.520;2024-02-23T00:25:54;20;20;
43479;PMS5003;29067;35.492;-97.520;2024-02-23T00:28:21;20;19;
43479;PMS5003;29067;35.492;-97.520;2024-02-23T00:30:49;20;19;
43479;PMS5003;29067;35.492;-97.520;2024-02-23T00:33:17;22;20;
43479;PMS5003;29067;35.492;-97.520;2024-02-23T00:35:45;19;19;
43479;PMS5003;29067;35.492;-97.520;2024-02-23T00:38:13;21;20;
43479;PMS5003;29067;35.492;-97.520;2024-02-23T00:40:41;19;19;
43479;PMS5003;29067;35.492;-97.520;2024-02-23T00:43:09;23;21;
43479;PMS5003;29067;35.492;-97.520;2024-02-23T00:45:37;20;19;
43479;PMS5003;29067;35.492;-97.520;2024-02-23T00:48:05;19;18;
43479;PMS5003;29067;35.492;-97.520;2024-02-23T00:50:33;18;18;
43479;PMS5003;29067;35.492;-97.520;2024-02-23T00:53:02;23;23;
43479;PMS5003;29067;35.492;-97.520;2024-02-23T00:55:30;15;14;
43479;PMS5003;29067;35.492;-97.520;2024-02-23T00:57:58;15;15;
43479;PMS5003;29067;35.492;-97.520;2024-02-23T01:00:26;15;15;
43479;PMS5003;29067;35.492;-97.520;2024-02-23T01:02:54;15;15;
43479;PMS5003;29067;35.492;-97.520;2024-02-23T01:05:22;14;14;
43479;PMS5003;29067;35.492;-97.520;2024-02-23T01:07:50;12;12;
43479;PMS5003;29067;35.492;-97.520;2024-02-23T01:10:18;14;14;
43479;PMS5003;29067;35.492;-97.520;2024-02-23T01:12:45;14;14;
43479;PMS5003;29067;35.492;-97.520;2024-02-23T01:15:13;14;14;
43479;PMS5003;29067;35.492;-97.520;2024-02-23T01:17:41;13;13;
43479;PMS5003;29067;35.492;-97.520;2024-02-23T01:20:09;11;11;
43479;PMS5003;29067;35.492;-97.520;2024-02-23T01:22:38;9;9;
43479;PMS5003;29067;35.492;-97.520;2024-02-23T01:25:06;10;10;
43479;PMS5003;29067;35.492;-97.520;2024-02-23T01:27:34;11;11;
43479;PMS5003;29067;35.492;-97.520;2024-02-23T01:30:03;7;7;
43479;PMS5003;29067;35.492;-97.520;2024-02-23T01:32:32;9;8;
43479;PMS5003;29067;35.492;-97.520;2024-02-23T01:35:01;8;8;
43479;PMS5003;29067;35.492;-97.520;2024-02-23T01:37:29;7;7;
43479;PMS5003;29067;35.492;-97.520;2024-02-23T01:39:57;6;6;
43479;PMS5003;29067;35.492;-97.520;2024-02-23T01:42:26;7;6;
43479;PMS5003;29067;35.492;-97.520;2024-02-23T01:44:54;7;6;
43479;PMS5003;29067;35.492;-97.520;2024-02-23T01:47:22;6;6;
43479;PMS5003;29067;35.492;-97.520;2024-02-23T01:49:51;7;6;
43479;PMS5003;29067;35.492;-97.520;2024-02-23T01:52:20;5;5;
43479;PMS5003;29067;35.492;-97.520;2024-02-23T01:54:48;5;5;
43479;PMS5003;29067;35.492;-97.520;2024-02-23T01:57:16;4;4;
43479;PMS5003;29067;35.492;-97.520;2024-02-23T01:59:45;6;4;
43479;PMS5003;29067;35.492;-97.520;2024-02-23T02:02:13;15;11;
43479;PMS5003;29067;35.492;-97.520;2024-02-23T02:04:42;4;4;
43479;PMS5003;29067;35.492;-97.520;2024-02-23T02:07:10;5;4;
43479;PMS5003;29067;35.492;-97.520;2024-02-23T02:09:38;4;4;
43479;PMS5003;29067;35.492;-97.520;2024-02-23T02:12:07;39;38;
43479;PMS5003;29067;35.492;-97.520;2024-02-23T02:14:35;4;4;
43479;PMS5003;29067;35.492;-97.520;2024-02-23T02:17:03;4;4;
43479;PMS5003;29067;35.492;-97.520;2024-02-23T02:19:31;5;4;
43479;PMS5003;29067;35.492;-97.520;2024-02-23T02:21:59;3;3;
43479;PMS5003;29067;35.492;-97.520;2024-02-23T02:24:28;3;3;
43479;PMS5003;29067;35.492;-97.520;2024-02-23T02:26:56;3;3;
43479;PMS5003;29067;35.492;-97.520;2024-02-23T02:29:24;4;3;
43479;PMS5003;29067;35.492;-97.520;2024-02-23T02:31:51;2;2;
43479;PMS5003;29067;35.492;-97.520;2024-02-23T02:34:19;5;4;
43479;PMS5003;29067;35.492;-97.520;2024-02-23T02:36:47;4;3;
43479;PMS5003;29067;35.492;-97.520;2024-02-23T02:39:15;3;3;
43479;PMS5003;29067;35.492;-97.520;2024-02-23T02:41:43;3;3;
43479;PMS5003;29067;35.492;-97.520;2024-02-23T02:44:12;3;3;
43479;PMS5003;29067;35.492;-97.520;2024-02-23T02:46:40;2;2;
43479;PMS5003;29067;35.492;-97.520;2024-02-23T02:49:08;3;2;
43479;PMS5003;29067;35.492;-97.520;2024-02-23T02:51:36;3;3;
43479;PMS5003;29067;35.492;-97.520;2024-02-23T02:54:03;5;4;
43479;PMS5003;29067;35.492;-97.520;2024-02-23T02:56:31;3;3;
43479;PMS5003;29067;35.492;-97.520;2024-02-23T02:58:59;2;2;
43479;PMS5003;29067;35.492;-97.520;2024-02-23T03:01:28;3;2;
43479;PMS5003;29067;35.492;-97.520;2024-02-23T03:03:55;3;2;
43479;PMS5003;29067;35.492;-97.520;2024-02-23T03:06:23;3;2;
43479;PMS5003;29067;35.492;-97.520;2024-02-23T03:08:51;2;2;
43479;PMS5003;29067;35.492;-97.520;2024-02-23T03:11:19;3;3;
43479;PMS5003;29067;35.492;-97.520;2024-02-23T03:13:46;2;2;
43479;PMS5003;29067;35.492;-97.520;2024-02-23T03:16:14;1;1;
43479;PMS5003;29067;35.492;-97.520;2024-02-23T03:18:43;1;1;
43479;PMS5003;29067;35.492;-97.520;2024-02-23T03:21:12;2;1;
43479;PMS5003;29067;35.492;-97.520;2024-02-23T03:23:40;1;1;
43479;PMS5003;29067;35.492;-97.520;2024-02-23T03:26:08;1;1;
43479;PMS5003;29067;35.492;-97.520;2024-02-23T03:28:35;2;2;
43479;PMS5003;29067;35.492;-97.520;2024-02-23T03:31:03;2;2;
43479;PMS5003;29067;35.492;-97.520;2024-02-23T03:33:31;1;1;
43479;PMS5003;29067;35.492;-97.520;2024-02-23T03:35:59;2;2;
43479;PMS5003;29067;35.492;-97.520;2024-02-23T03:38:26;2;1;
43479;PMS5003;29067;35.492;-97.520;2024-02-23T03:40:54;1;1;
43479;PMS5003;29067;35.492;-97.520;2024-02-23T03:43:30;1;1;
43479;PMS5003;29067;35.492;-97.520;2024-02-23T03:45:57;1;1;
43479;PMS5003;29067;35.492;-97.520;2024-02-23T03:48:25;1;1;
43479;PMS5003;29067;35.492;-97.520;2024-02-23T03:50:53;1;1;
43479;PMS5003;29067;35.492;-97.520;2024-02-23T03:53:21;3;2;
43479;PMS5003;29067;35.492;-97.520;2024-02-23T03:55:48;2;2;
43479;PMS5003;29067;35.492;-97.520;2024-02-23T03:58:16;1;1;
43479;PMS5003;29067;35.492;-97.520;2024-02-23T04:00:44;2;1;
43479;PMS5003;29067;35.492;-97.520;2024-02-23T04:03:12;1;1;
43479;PMS5003;29067;35.492;-97.520;2024-02-23T04:05:39;2;2;
43479;PMS5003;29067;35.492;-97.520;2024-02-23T04:08:07;1;1;
43479;PMS5003;29067;35.492;-97.520;2024-02-23T04:10:35;3;2;
43479;PMS5003;29067;35.492;-97.520;2024-02-23T04:13:03;1;1;
43479;PMS5003;29067;35.492;-97.520;2024-02-23T04:15:30;1;1;
43479;PMS5003;29067;35.492;-97.520;2024-02-23T04:17:58;2;2;
43479;PMS5003;29067;35.492;-97.520;2024-02-23T04:20:27;2;1;
43479;PMS5003;29067;35.492;-97.520;2024-02-23T04:22:55;1;1;
43479;PMS5003;29067;35.492;-97.520;2024-02-23T04:25:23;1;1;
43479;PMS5003;29067;35.492;-97.520;2024-02-23T04:27:51;1;1;
43479;PMS5003;29067;35.492;-97.520;2024-02-23T04:30:19;1;1;
43479;PMS5003;29067;35.492;-97.520;2024-02-23T04:32:47;1;1;
43479;PMS5003;29067;35.492;-97.520;2024-02-23T04:35:14;1;1;
43479;PMS5003;29067;35.492;-97.520;2024-02-23T04:37:43;2;1;
43479;PMS5003;29067;35.492;-97.520;2024-02-23T04:40:11;2;2;
43479;PMS5003;29067;35.492;-97.520;2024-02-23T04:42:40;2;1;
43479;PMS5003;29067;35.492;-97.520;2024-02-23T04:45:11;2;1;
43479;PMS5003;29067;35.492;-97.520;2024-02-23T04:47:38;2;1;
43479;PMS5003;29067;35.492;-97.520;2024-02-23T04:50:07;1;1;
43479;PMS5003;29067;35.492;-97.520;2024-02-23T04:52:35;2;2;
43479;PMS5003;29067;35.492;-97.520;2024-02-23T04:55:03;2;2;
43479;PMS5003;29067;35.492;-97.520;2024-02-23T04:57:32;2;2;
43479;PMS5003;29067;35.492;-97.520;2024-02-23T05:00:00;2;2;
43479;PMS5003;29067;35.492;-97.520;2024-02-23T05:02:27;4;4;
43479;PMS5003;29067;35.492;-97.520;2024-02-23T05:04:55;4;4;
43479;PMS5003;29067;35.492;-97.520;2024-02-23T05:07:23;4;4;
43479;PMS5003;29067;35.492;-97.520;2024-02-23T05:09:51;4;4;
43479;PMS5003;29067;35.492;-97.520;2024-02-23T05:12:19;6;6;
43479;PMS5003;29067;35.492;-97.520;2024-02-23T05:14:46;7;7;
43479;PMS5003;29067;35.492;-97.520;2024-02-23T05:17:14;12;12;
43479;PMS5003;29067;35.492;-97.520;2024-02-23T05:19:42;2;2;
43479;PMS5003;29067;35.492;-97.520;2024-02-23T05:22:10;4;4;
43479;PMS5003;29067;35.492;-97.520;2024-02-23T05:24:38;2;2;
43479;PMS5003;29067;35.492;-97.520;2024-02-23T05:27:06;2;1;
43479;PMS5003;29067;35.492;-97.520;2024-02-23T05:29:34;3;2;
43479;PMS5003;29067;35.492;-97.520;2024-02-23T05:32:02;1;1;
43479;PMS5003;29067;35.492;-97.520;2024-02-23T05:34:30;1;1;
43479;PMS5003;29067;35.492;-97.520;2024-02-23T05:36:57;1;1;
43479;PMS5003;29067;35.492;-97.520;2024-02-23T05:39:25;1;1;
43479;PMS5003;29067;35.492;-97.520;2024-02-23T05:41:53;2;2;
43479;PMS5003;29067;35.492;-97.520;2024-02-23T05:44:21;3;2;
43479;PMS5003;29067;35.492;-97.520;2024-02-23T05:46:49;1;1;
43479;PMS5003;29067;35.492;-97.520;2024-02-23T05:49:16;1;1;
43479;PMS5003;29067;35.492;-97.520;2024-02-23T05:51:44;0;0;
43479;PMS5003;29067;35.492;-97.520;2024-02-23T05:54:12;2;2;
43479;PMS5003;29067;35.492;-97.520;2024-02-23T05:56:40;1;1;
43479;PMS5003;29067;35.492;-97.520;2024-02-23T05:59:08;1;1;
43479;PMS5003;29067;35.492;-97.520;2024-02-23T06:01:36;2;2;
43479;PMS5003;29067;35.492;-97.520;2024-02-23T06:04:03;1;1;
43479;PMS5003;29067;35.492;-97.520;2024-02-23T06:06:31;1;1;
43479;PMS5003;29067;35.492;-97.520;2024-02-23T06:08:59;2;1;
43479;PMS5003;29067;35.492;-97.520;2024-02-23T06:11:27;2;1;
43479;PMS5003;29067;35.492;-97.520;2024-02-23T06:13:55;2;2;
43479;PMS5003;29067;35.492;-97.520;2024-02-23T06:16:23;2;2;
43479;PMS5003;29067;35.492;-97.520;2024-02-23T06:18:50;2;2;
43479;PMS5003;29067;35.492;-97.520;2024-02-23T06:21:18;2;2;
43479;PMS5003;29067;35.492;-97.520;2024-02-23T06:23:46;2;2;
43479;PMS5003;29067;35.492;-97.520;2024-02-23T06:26:14;1;1;
43479;PMS5003;29067;35.492;-97.520;2024-02-23T06:28:42;1;1;
43479;PMS5003;29067;35.492;-97.520;2024-02-23T06:31:10;1;1;
43479;PMS5003;29067;35.492;-97.520;2024-02-23T06:33:37;1;1;
43479;PMS5003;29067;35.492;-97.520;2024-02-23T06:36:06;0;0;
43479;PMS5003;29067;35.492;-97.520;2024-02-23T06:38:34;1;1;
43479;PMS5003;29067;35.492;-97.520;2024-02-23T06:41:02;1;1;
43479;PMS5003;29067;35.492;-97.520;2024-02-23T06:43:30;2;2;
43479;PMS5003;29067;35.492;-97.520;2024-02-23T06:45:57;1;1;
43479;PMS5003;29067;35.492;-97.520;2024-02-23T06:48:30;1;1;
43479;PMS5003;29067;35.492;-97.520;2024-02-23T06:50:57;1;1;
43479;PMS5003;29067;35.492;-97.520;2024-02-23T06:53:25;1;1;
43479;PMS5003;29067;35.492;-97.520;2024-02-23T06:55:53;1;1;
43479;PMS5003;29067;35.492;-97.520;2024-02-23T06:58:21;1;1;
43479;PMS5003;29067;35.492;-97.520;2024-02-23T07:00:49;1;1;
43479;PMS5003;29067;35.492;-97.520;2024-02-23T07:03:17;1;1;
43479;PMS5003;29067;35.492;-97.520;2024-02-23T07:05:45;2;2;
43479;PMS5003;29067;35.492;-97.520;2024-02-23T07:08:12;1;1;
43479;PMS5003;29067;35.492;-97.520;2024-02-23T07:10:40;1;1;
43479;PMS5003;29067;35.492;-97.520;2024-02-23T07:13:09;1;1;
43479;PMS5003;29067;35.492;-97.520;2024-02-23T07:15:37;2;2;
43479;PMS5003;29067;35.492;-97.520;2024-02-23T07:18:05;1;1;
43479;PMS5003;29067;35.492;-97.520;2024-02-23T07:20:33;2;2;
43479;PMS5003;29067;35.492;-97.520;2024-02-23T07:23:02;1;1;
43479;PMS5003;29067;35.492;-97.520;2024-02-23T07:25:31;1;1;
43479;PMS5003;29067;35.492;-97.520;2024-02-23T07:27:59;1;1;
43479;PMS5003;29067;35.492;-97.520;2024-02-23T07:30:26;2;1;
43479;PMS5003;29067;35.492;-97.520;2024-02-23T07:32:54;2;2;
43479;PMS5003;29067;35.492;-97.520;2024-02-23T07:35:22;1;1;
43479;PMS5003;29067;35.492;-97.520;2024-02-23T07:37:50;1;1;
43479;PMS5003;29067;35.492;-97.520;2024-02-23T07:40:19;1;1;
43479;PMS5003;29067;35.492;-97.520;2024-02-23T07:42:46;2;2;
43479;PMS5003;29067;35.492;-97.520;2024-02-23T07:45:14;0;0;
43479;PMS5003;29067;35.492;-97.520;2024-02-23T07:47:42;2;2;
43479;PMS5003;29067;35.492;-97.520;2024-02-23T07:50:10;1;1;
43479;PMS5003;29067;35.492;-97.520;2024-02-23T07:52:38;0;0;
43479;PMS5003;29067;35.492;-97.520;2024-02-23T07:55:06;0;0;
43479;PMS5003;29067;35.492;-97.520;2024-02-23T07:57:34;1;1;
43479;PMS5003;29067;35.492;-97.520;2024-02-23T08:00:03;1;0;
43479;PMS5003;29067;35.492;-97.520;2024-02-23T08:02:31;0;0;
43479;PMS5003;29067;35.492;-97.520;2024-02-23T08:04:59;1;1;
43479;PMS5003;29067;35.492;-97.520;2024-02-23T08:07:27;2;1;
43479;PMS5003;29067;35.492;-97.520;2024-02-23T08:09:55;1;1;
43479;PMS5003;29067;35.492;-97.520;2024-02-23T08:12:22;3;1;
43479;PMS5003;29067;35.492;-97.520;2024-02-23T08:14:50;1;1;
43479;PMS5003;29067;35.492;-97.520;2024-02-23T08:17:18;2;1;
43479;PMS5003;29067;35.492;-97.520;2024-02-23T08:19:46;1;1;
43479;PMS5003;29067;35.492;-97.520;2024-02-23T08:22:14;1;1;
43479;PMS5003;29067;35.492;-97.520;2024-02-23T08:24:42;0;0;
43479;PMS5003;29067;35.492;-97.520;2024-02-23T08:27:10;0;0;
43479;PMS5003;29067;35.492;-97.520;2024-02-23T08:29:38;1;1;
43479;PMS5003;29067;35.492;-97.520;2024-02-23T08:32:06;1;1;
43479;PMS5003;29067;35.492;-97.520;2024-02-23T08:34:33;1;1;
43479;PMS5003;29067;35.492;-97.520;2024-02-23T08:37:01;0;0;
43479;PMS5003;29067;35.492;-97.520;2024-02-23T08:39:29;1;1;
43479;PMS5003;29067;35.492;-97.520;2024-02-23T08:41:57;2;1;
43479;PMS5003;29067;35.492;-97.520;2024-02-23T08:44:25;1;1;
43479;PMS5003;29067;35.492;-97.520;2024-02-23T08:46:53;0;0;
43479;PMS5003;29067;35.492;-97.520;2024-02-23T08:49:21;0;0;
43479;PMS5003;29067;35.492;-97.520;2024-02-23T08:51:48;2;1;
43479;PMS5003;29067;35.492;-97.520;2024-02-23T08:54:16;1;1;
43479;PMS5003;29067;35.492;-97.520;2024-02-23T08:56:44;1;1;
43479;PMS5003;29067;35.492;-97.520;2024-02-23T08:59:12;1;1;
43479;PMS5003;29067;35.492;-97.520;2024-02-23T09:01:40;1;1;
43479;PMS5003;29067;35.492;-97.520;2024-02-23T09:04:08;1;1;
43479;PMS5003;29067;35.492;-97.520;2024-02-23T09:06:36;0;0;
43479;PMS5003;29067;35.492;-97.520;2024-02-23T09:09:04;1;1;
43479;PMS5003;29067;35.492;-97.520;2024-02-23T09:11:32;1;1;
43479;PMS5003;29067;35.492;-97.520;2024-02-23T09:13:59;1;1;
43479;PMS5003;29067;35.492;-97.520;2024-02-23T09:16:27;1;1;
43479;PMS5003;29067;35.492;-97.520;2024-02-23T09:18:55;1;1;
43479;PMS5003;29067;35.492;-97.520;2024-02-23T09:21:23;1;1;
43479;PMS5003;29067;35.492;-97.520;2024-02-23T09:23:51;1;0;
43479;PMS5003;29067;35.492;-97.520;2024-02-23T09:26:19;0;0;
43479;PMS5003;29067;35.492;-97.520;2024-02-23T09:28:47;1;1;
43479;PMS5003;29067;35.492;-97.520;2024-02-23T09:31:15;1;1;
43479;PMS5003;29067;35.492;-97.520;2024-02-23T09:33:43;1;1;
43479;PMS5003;29067;35.492;-97.520;2024-02-23T09:36:10;2;1;
43479;PMS5003;29067;35.492;-97.520;2024-02-23T09:38:38;1;1;
43479;PMS5003;29067;35.492;-97.520;2024-02-23T09:41:07;2;2;
43479;PMS5003;29067;35.492;-97.520;2024-02-23T09:43:46;0;0;
43479;PMS5003;29067;35.492;-97.520;2024-02-23T09:46:15;1;1;
43479;PMS5003;29067;35.492;-97.520;2024-02-23T09:48:44;0;0;
43479;PMS5003;29067;35.492;-97.520;2024-02-23T09:51:13;1;1;
43479;PMS5003;29067;35.492;-97.520;2024-02-23T09:53:41;1;1;
43479;PMS5003;29067;35.492;-97.520;2024-02-23T09:56:10;4;4;
43479;PMS5003;29067;35.492;-97.520;2024-02-23T09:58:39;6;6;
43479;PMS5003;29067;35.492;-97.520;2024-02-23T10:01:08;4;4;
43479;PMS5003;29067;35.492;-97.520;2024-02-23T10:03:37;4;4;
43479;PMS5003;29067;35.492;-97.520;2024-02-23T10:06:06;15;15;
43479;PMS5003;29067;35.492;-97.520;2024-02-23T10:08:34;8;8;
43479;PMS5003;29067;35.492;-97.520;2024-02-23T10:11:02;9;9;
43479;PMS5003;29067;35.492;-97.520;2024-02-23T10:13:30;9;9;
43479;PMS5003;29067;35.492;-97.520;2024-02-23T10:15:58;16;16;
43479;PMS5003;29067;35.492;-97.520;2024-02-23T10:18:26;26;26;
43479;PMS5003;29067;35.492;-97.520;2024-02-23T10:20:54;18;18;
43479;PMS5003;29067;35.492;-97.520;2024-02-23T10:23:22;43;43;
43479;PMS5003;29067;35.492;-97.520;2024-02-23T10:25:50;67;67;
43479;PMS5003;29067;35.492;-97.520;2024-02-23T10:28:17;17;17;
43479;PMS5003;29067;35.492;-97.520;2024-02-23T10:30:46;119;119;
43479;PMS5003;29067;35.492;-97.520;2024-02-23T10:33:16;140;139;
43479;PMS5003;29067;35.492;-97.520;2024-02-23T10:35:49;16;12;
43479;PMS5003;29067;35.492;-97.520;2024-02-23T10:38:22;61;61;
43479;PMS5003;29067;35.492;-97.520;2024-02-23T10:40:53;76;76;
43479;PMS5003;29067;35.492;-97.520;2024-02-23T10:43:24;158;158;
43479;PMS5003;29067;35.492;-97.520;2024-02-23T10:45:57;126;125;
43479;PMS5003;29067;35.492;-97.520;2024-02-23T10:48:26;90;90;
43479;PMS5003;29067;35.492;-97.520;2024-02-23T10:50:55;23;23;
43479;PMS5003;29067;35.492;-97.520;2024-02-23T10:53:24;117;117;
43479;PMS5003;29067;35.492;-97.520;2024-02-23T10:55:53;175;174;
43479;PMS5003;29067;35.492;-97.520;2024-02-23T10:58:23;76;76;
43479;PMS5003;29067;35.492;-97.520;2024-02-23T11:00:51;27;25;
43479;PMS5003;29067;35.492;-97.520;2024-02-23T11:03:24;15;15;
43479;PMS5003;29067;35.492;-97.520;2024-02-23T11:05:53;18;18;
43479;PMS5003;29067;35.492;-97.520;2024-02-23T11:08:21;11;11;
43479;PMS5003;29067;35.492;-97.520;2024-02-23T11:10:49;18;18;
43479;PMS5003;29067;35.492;-97.520;2024-02-23T11:13:18;11;10;
43479;PMS5003;29067;35.492;-97.520;2024-02-23T11:16:01;17;17;
43479;PMS5003;29067;35.492;-97.520;2024-02-23T11:18:29;9;9;
43479;PMS5003;29067;35.492;-97.520;2024-02-23T11:20:59;3;3;
43479;PMS5003;29067;35.492;-97.520;2024-02-23T11:23:27;2;2;
43479;PMS5003;29067;35.492;-97.520;2024-02-23T11:26:06;1;1;
43479;PMS5003;29067;35.492;-97.520;2024-02-23T11:28:43;0;0;
43479;PMS5003;29067;35.492;-97.520;2024-02-23T11:31:15;0;0;
43479;PMS5003;29067;35.492;-97.520;2024-02-23T11:33:50;0;0;
43479;PMS5003;29067;35.492;-97.520;2024-02-23T11:36:23;0;0;
43479;PMS5003;29067;35.492;-97.520;2024-02-23T11:38:53;1;0;
43479;PMS5003;29067;35.492;-97.520;2024-02-23T11:41:23;0;0;
43479;PMS5003;29067;35.492;-97.520;2024-02-23T11:43:53;0;0;
43479;PMS5003;29067;35.492;-97.520;2024-02-23T11:46:22;1;0;
43479;PMS5003;29067;35.492;-97.520;2024-02-23T11:48:50;0;0;
43479;PMS5003;29067;35.492;-97.520;2024-02-23T11:51:18;0;0;
43479;PMS5003;29067;35.492;-97.520;2024-02-23T11:53:47;0;0;
43479;PMS5003;29067;35.492;-97.520;2024-02-23T11:56:15;0;0;
43479;PMS5003;29067;35.492;-97.520;2024-02-23T11:58:43;0;0;
43479;PMS5003;29067;35.492;-97.520;2024-02-23T12:03:02;0;0;
43479;PMS5003;29067;35.492;-97.520;2024-02-23T12:05:30;0;0;
43479;PMS5003;29067;35.492;-97.520;2024-02-23T12:07:58;0;0;
43479;PMS5003;29067;35.492;-97.520;2024-02-23T12:10:26;0;0;
43479;PMS5003;29067;35.492;-97.520;2024-02-23T12:12:54;0;0;
43479;PMS5003;29067;35.492;-97.520;2024-02-23T12:15:22;0;0;
43479;PMS5003;29067;35.492;-97.520;2024-02-23T12:17:50;0;0;
43479;PMS5003;29067;35.492;-97.520;2024-02-23T12:20:17;0;0;
43479;PMS5003;29067;35.492;-97.520;2024-02-23T12:22:46;0;0;
43479;PMS5003;29067;35.492;-97.520;2024-02-23T12:25:14;0;0;
43479;PMS5003;29067;35.492;-97.520;2024-02-23T12:27:42;0;0;
43479;PMS5003;29067;35.492;-97.520;2024-02-23T12:30:13;0;0;
43479;PMS5003;29067;35.492;-97.520;2024-02-23T12:32:41;0;0;
43479;PMS5003;29067;35.492;-97.520;2024-02-23T12:35:10;0;0;
43479;PMS5003;29067;35.492;-97.520;2024-02-23T12:37:38;0;0;
43479;PMS5003;29067;35.492;-97.520;2024-02-23T12:40:07;0;0;
43479;PMS5003;29067;35.492;-97.520;2024-02-23T12:42:35;0;0;
43479;PMS5003;29067;35.492;-97.520;2024-02-23T12:45:03;0;0;
43479;PMS5003;29067;35.492;-97.520;2024-02-23T12:47:32;0;0;
43479;PMS5003;29067;35.492;-97.520;2024-02-23T12:50:00;0;0;
43479;PMS5003;29067;35.492;-97.520;2024-02-23T12:52:28;0;0;
43479;PMS5003;29067;35.492;-97.520;2024-02-23T12:54:55;0;0;
43479;PMS5003;29067;35.492;-97.520;2024-02-23T12:57:23;0;0;
43479;PMS5003;29067;35.492;-97.520;2024-02-23T12:59:51;0;0;
43479;PMS5003;29067;35.492;-97.520;2024-02-23T13:02:20;1;0;
43479;PMS5003;29067;35.492;-97.520;2024-02-23T13:04:48;0;0;
43479;PMS5003;29067;35.492;-97.520;2024-02-23T13:07:16;0;0;
43479;PMS5003;29067;35.492;-97.520;2024-02-23T13:09:44;0;0;
43479;PMS5003;29067;35.492;-97.520;2024-02-23T13:12:12;1;0;
43479;PMS5003;29067;35.492;-97.520;2024-02-23T13:14:40;1;0;
43479;PMS5003;29067;35.492;-97.520;2024-02-23T13:17:08;0;0;
43479;PMS5003;29067;35.492;-97.520;2024-02-23T13:19:36;0;0;
43479;PMS5003;29067;35.492;-97.520;2024-02-23T13:22:04;0;0;
43479;PMS5003;29067;35.492;-97.520;2024-02-23T13:24:32;0;0;
43479;PMS5003;29067;35.492;-97.520;2024-02-23T13:27:00;0;0;
43479;PMS5003;29067;35.492;-97.520;2024-02-23T13:29:28;0;0;
43479;PMS5003;29067;35.492;-97.520;2024-02-23T13:31:56;0;0;
43479;PMS5003;29067;35.492;-97.520;2024-02-23T13:34:24;0;0;
43479;PMS5003;29067;35.492;-97.520;2024-02-23T13:36:52;0;0;
43479;PMS5003;29067;35.492;-97.520;2024-02-23T13:39:19;0;0;
43479;PMS5003;29067;35.492;-97.520;2024-02-23T13:41:47;0;0;
43479;PMS5003;29067;35.492;-97.520;2024-02-23T13:44:15;0;0;
43479;PMS5003;29067;35.492;-97.520;2024-02-23T13:46:43;0;0;
43479;PMS5003;29067;35.492;-97.520;2024-02-23T13:49:11;3;1;
43479;PMS5003;29067;35.492;-97.520;2024-02-23T13:51:39;0;0;
43479;PMS5003;29067;35.492;-97.520;2024-02-23T13:54:07;0;0;
43479;PMS5003;29067;35.492;-97.520;2024-02-23T13:56:35;0;0;
43479;PMS5003;29067;35.492;-97.520;2024-02-23T13:59:03;1;0;
43479;PMS5003;29067;35.492;-97.520;2024-02-23T14:01:31;36;36;
43479;PMS5003;29067;35.492;-97.520;2024-02-23T14:03:59;16;16;
43479;PMS5003;29067;35.492;-97.520;2024-02-23T14:06:32;1;1;
43479;PMS5003;29067;35.492;-97.520;2024-02-23T14:09:00;0;0;
43479;PMS5003;29067;35.492;-97.520;2024-02-23T14:11:27;1;0;
43479;PMS5003;29067;35.492;-97.520;2024-02-23T14:13:55;0;0;
43479;PMS5003;29067;35.492;-97.520;2024-02-23T14:16:24;1;1;
43479;PMS5003;29067;35.492;-97.520;2024-02-23T14:18:52;2;2;
43479;PMS5003;29067;35.492;-97.520;2024-02-23T14:21:20;0;0;
43479;PMS5003;29067;35.492;-97.520;2024-02-23T14:23:47;0;0;
43479;PMS5003;29067;35.492;-97.520;2024-02-23T14:26:15;0;0;
43479;PMS5003;29067;35.492;-97.520;2024-02-23T14:28:43;0;0;
43479;PMS5003;29067;35.492;-97.520;2024-02-23T14:31:11;2;0;
43479;PMS5003;29067;35.492;-97.520;2024-02-23T14:33:39;0;0;
43479;PMS5003;29067;35.492;-97.520;2024-02-23T14:36:07;0;0;
43479;PMS5003;29067;35.492;-97.520;2024-02-23T14:38:35;0;0;
43479;PMS5003;29067;35.492;-97.520;2024-02-23T14:41:03;0;0;
43479;PMS5003;29067;35.492;-97.520;2024-02-23T14:43:31;0;0;
43479;PMS5003;29067;35.492;-97.520;2024-02-23T14:45:59;0;0;
43479;PMS5003;29067;35.492;-97.520;2024-02-23T14:48:26;1;1;
43479;PMS5003;29067;35.492;-97.520;2024-02-23T14:50:54;2;2;
43479;PMS5003;29067;35.492;-97.520;2024-02-23T14:53:22;0;0;
43479;PMS5003;29067;35.492;-97.520;2024-02-23T14:55:50;0;0;
43479;PMS5003;29067;35.492;-97.520;2024-02-23T14:58:18;0;0;
43479;PMS5003;29067;35.492;-97.520;2024-02-23T15:00:45;0;0;
43479;PMS5003;29067;35.492;-97.520;2024-02-23T15:03:13;0;0;
43479;PMS5003;29067;35.492;-97.520;2024-02-23T15:05:41;0;0;
43479;PMS5003;29067;35.492;-97.520;2024-02-23T15:08:09;0;0;
43479;PMS5003;29067;35.492;-97.520;2024-02-23T15:10:36;0;0;
43479;PMS5003;29067;35.492;-97.520;2024-02-23T15:13:04;2;2;
43479;PMS5003;29067;35.492;-97.520;2024-02-23T15:15:32;3;3;
43479;PMS5003;29067;35.492;-97.520;2024-02-23T15:18:00;0;0;
43479;PMS5003;29067;35.492;-97.520;2024-02-23T15:20:28;33;33;
43479;PMS5003;29067;35.492;-97.520;2024-02-23T15:22:56;19;19;
43479;PMS5003;29067;35.492;-97.520;2024-02-23T15:25:23;30;30;
43479;PMS5003;29067;35.492;-97.520;2024-02-23T15:27:51;0;0;
43479;PMS5003;29067;35.492;-97.520;2024-02-23T15:30:19;1;1;
43479;PMS5003;29067;35.492;-97.520;2024-02-23T15:32:47;0;0;
43479;PMS5003;29067;35.492;-97.520;2024-02-23T15:35:14;0;0;
43479;PMS5003;29067;35.492;-97.520;2024-02-23T15:37:42;0;0;
43479;PMS5003;29067;35.492;-97.520;2024-02-23T15:40:11;0;0;
43479;PMS5003;29067;35.492;-97.520;2024-02-23T15:42:38;1;0;
43479;PMS5003;29067;35.492;-97.520;2024-02-23T15:45:07;0;0;
43479;PMS5003;29067;35.492;-97.520;2024-02-23T15:47:36;0;0;
43479;PMS5003;29067;35.492;-97.520;2024-02-23T15:50:04;0;0;
43479;PMS5003;29067;35.492;-97.520;2024-02-23T15:52:32;3;3;
43479;PMS5003;29067;35.492;-97.520;2024-02-23T15:55:00;2;2;
43479;PMS5003;29067;35.492;-97.520;2024-02-23T15:57:28;4;4;
43479;PMS5003;29067;35.492;-97.520;2024-02-23T15:59:56;9;9;
43479;PMS5003;29067;35.492;-97.520;2024-02-23T16:02:23;2;2;
43479;PMS5003;29067;35.492;-97.520;2024-02-23T16:04:51;2;2;
43479;PMS5003;29067;35.492;-97.520;2024-02-23T16:07:19;6;6;
43479;PMS5003;29067;35.492;-97.520;2024-02-23T16:09:47;8;7;
43479;PMS5003;29067;35.492;-97.520;2024-02-23T16:12:15;11;10;
43479;PMS5003;29067;35.492;-97.520;2024-02-23T16:14:43;30;29;
43479;PMS5003;29067;35.492;-97.520;2024-02-23T16:17:11;31;31;
43479;PMS5003;29067;35.492;-97.520;2024-02-23T16:19:39;25;25;